Impacts TAF Board
For situational awareness. Not to be used for flight planning purposes.
IDs:

KBOS - Boston/Logan Intl, MA, US

Issued at 1120 UTC 15 Jul 2020
Updated at 1136 UTC 15 Jul 2020
Potential Impact None Slight Moderate High
Time<<16/12Z 16/13Z 16/14Z 16/15Z 16/16Z 16/17Z 16/18Z 16/19Z 16/20Z 16/21Z 16/22Z 16/23Z 17/00Z
Type PRVL PRVL PRVL PRVL PRVL PRVL
VIS >6 >6 >6 >6 >6 >6
CIG -- -- -- -- -- --
Cover SCT SCT SCT SCT SCT SCT
FltCat VFR VFR VFR VFR VFR VFR
WX -- -- -- -- -- --
WDir 100 100 100 100 100 100
WSpd 5 5 5 5 5 5
WGst -- -- -- -- -- --
Raw TAF
KBOS 151120Z 1512/1618 03010KT P6SM OVC015
  FM151500 04010KT P6SM OVC025
  FM151700 08010KT P6SM BKN035
  FM152200 09008KT P6SM SCT150
  FM160800 10005KT P6SM SCT100


METAR Board
Radar Display
Forecast Discussion
For situational awareness. Not to be used for flight planning purposes.